Flight Track Log - Related Links

Times and Time Zones

All times are in EDT time to prevent confusion due to time zone crossing. See the UAL3740 flight status page for this flight to view local times or setup timezone preferences in your user account.

Time Position Orientation Groundspeed Altitude Reporting Facility
EDT Latitude Longitude Course Direction KTS MPH feet Rate Location/Type
Sun 05:15:26 PM 30.5675 -81.6500 24° Northeast 234 269 3,000  Level Jacksonville Center
Sun 05:16:18 PM 30.6197 -81.6567 354° North 255 293 4,900 2,304 Climbing Jacksonville Center
Sun 05:17:18 PM 30.6928 -81.6606 357° North 266 306 7,300 2,550 Climbing Jacksonville Center
Sun 05:18:18 PM 30.7636 -81.6403 14° North 266 306 10,000 2,300 Climbing Jacksonville Center
Sun 05:19:18 PM 30.8406 -81.6175 14° North 271 312 11,900 1,950 Climbing Jacksonville Center
Sun 05:20:18 PM 30.9197 -81.5922 15° North 282 325 13,900 1,800 Climbing Jacksonville Center
Sun 05:21:18 PM 31.0069 -81.5619 17° North 295 339 15,500 1,650 Climbing Jacksonville Center
Sun 05:22:18 PM 31.0986 -81.5364 13° North 314 361 17,200 1,700 Climbing Jacksonville Center
Sun 05:23:18 PM 31.1964 -81.5058 15° North 340 391 18,900 1,700 Climbing Jacksonville Center
Sun 05:24:18 PM 31.2922 -81.4728 16° North 350 403 20,600 1,650 Climbing Jacksonville Center
Sun 05:25:18 PM 31.4003 -81.4369 16° North 360 414 22,200 1,400 Climbing Jacksonville Center
Sun 05:26:18 PM 31.5000 -81.4039 16° North 366 421 23,400 1,300 Climbing Jacksonville Center
Sun 05:27:18 PM 31.6042 -81.3706 15° North 379 436 24,800 1,350 Climbing Jacksonville Center
Sun 05:28:18 PM 31.7081 -81.3394 14° North 379 436 26,100 1,250 Climbing Jacksonville Center
Sun 05:29:18 PM 31.8017 -81.3086 16° North 374 430 27,300 1,150 Climbing Jacksonville Center
Sun 05:30:18 PM 31.9181 -81.2722 15° North 379 436 28,400 1,000 Climbing Jacksonville Center
Sun 05:31:18 PM 32.0264 -81.2361 16° North 393 452 29,300 950 Climbing Jacksonville Center
Sun 05:32:18 PM 32.1386 -81.2044 13° North 400 460 30,300 1,050 Climbing Jacksonville Center
Sun 05:33:18 PM 32.2533 -81.1950 North 405 466 31,400 1,150 Climbing Jacksonville Center
Sun 05:34:18 PM 32.3658 -81.1831 North 405 466 32,600 1,250 Climbing Jacksonville Center
Sun 05:35:18 PM 32.4786 -81.1761 North 405 466 33,900 1,100 Climbing Jacksonville Center
Sun 05:36:18 PM 32.5744 -81.1669 North 400 460 34,800 550 Climbing Jacksonville Center
Sun 05:37:18 PM 32.6956 -81.1769 356° North 394 453 35,000 100 Climbing Jacksonville Center
Sun 05:38:18 PM 32.8108 -81.2044 349° North 402 463 35,000  Level Jacksonville Center
Sun 05:39:18 PM 32.9261 -81.2344 348° North 412 474 35,000 400 Level Jacksonville Center
Sun 05:40:18 PM 33.0453 -81.2619 349° North 422 486 35,800 700 Climbing Jacksonville Center
Sun 05:41:18 PM 33.1583 -81.2897 348° North 422 486 36,400 600 Climbing Jacksonville Center
Sun 05:42:18 PM 33.2736 -81.3200 348° North 422 486 37,000 300 Climbing Jacksonville Center
Sun 05:43:18 PM 33.3908 -81.3503 348° North 422 486 37,000  Level Jacksonville Center
Sun 05:44:18 PM 33.4956 -81.3708 351° North 422 486 37,000  Level Jacksonville Center
Sun 05:45:18 PM 33.6106 -81.3986 349° North 422 486 37,000  Level Jacksonville Center
Sun 05:46:18 PM 33.7256 -81.4267 349° North 422 486 37,000  Level Jacksonville Center
Sun 05:47:18 PM 33.8408 -81.4547 349° North 415 478 37,000  Level Jacksonville Center
Sun 05:48:18 PM 33.9517 -81.4856 347° North 415 478 37,000 123 Level Jacksonville Center
Sun 05:50:33 PM 34.2011 -81.5497 348° North 412 474 37,400 308 Climbing Atlanta Center
Sun 05:51:33 PM 34.3247 -81.5789 349° North 412 474 38,000 300 Climbing Atlanta Center
Sun 05:52:33 PM 34.4339 -81.6058 348° North 412 474 38,000  Level Atlanta Center
Sun 05:53:33 PM 34.5472 -81.6353 348° North 412 474 38,000  Level Atlanta Center
Sun 05:54:33 PM 34.6478 -81.6678 345° North 412 474 38,000  Level Atlanta Center
Sun 05:55:33 PM 34.7569 -81.6950 348° North 412 474 38,000  Level Atlanta Center
Sun 05:56:33 PM 34.8681 -81.7222 349° North 407 468 38,000  Level Atlanta Center
Sun 05:57:33 PM 34.9814 -81.7522 348° North 407 468 38,000  Level Atlanta Center
Sun 05:58:33 PM 35.1031 -81.7844 348° North 402 463 38,000  Level Atlanta Center
Sun 05:59:33 PM 35.2119 -81.8119 348° North 402 463 38,000  Level Atlanta Center
Sun 06:00:33 PM 35.3208 -81.8394 348° North 402 463 38,000  Level Atlanta Center
Sun 06:01:33 PM 35.4319 -81.8672 348° North 402 463 38,000  Level Atlanta Center
Sun 06:02:33 PM 35.5411 -81.8975 347° North 396 456 38,000  Level Atlanta Center
Sun 06:03:33 PM 35.6500 -81.9253 348° North 396 456 38,000  Level Atlanta Center
Sun 06:04:33 PM 35.7506 -81.9508 348° North 396 456 38,000  Level Atlanta Center
Sun 06:05:33 PM 35.8575 -81.9789 348° North 396 456 38,000  Level Atlanta Center
Sun 06:06:33 PM 35.9664 -82.0067 348° North 396 456 38,000  Level Atlanta Center
Sun 06:07:33 PM 36.0753 -82.0350 348° North 391 450 38,000  Level Atlanta Center
Sun 06:08:33 PM 36.1822 -82.0631 348° North 391 450 38,000  Level Atlanta Center
Sun 06:09:33 PM 36.2889 -82.0889 349° North 386 444 38,000  Level Atlanta Center
Sun 06:10:33 PM 36.3978 -82.1197 347° North 386 444 38,000  Level Atlanta Center
Sun 06:11:33 PM 36.4947 -82.1872 331° Northwest 393 452 38,000  Level Atlanta Center
Sun 06:13:47 PM 36.7072 -82.3858 323° Northwest 408 470 38,000  Level Indianapolis Center
Sun 06:14:49 PM 36.7978 -82.4714 323° Northwest 410 472 38,000  Level Indianapolis Center
Sun 06:15:51 PM 36.8869 -82.5556 323° Northwest 405 466 38,000  Level Indianapolis Center
Sun 06:16:53 PM 36.9761 -82.6411 323° Northwest 406 467 38,000  Level Indianapolis Center
Sun 06:17:55 PM 37.0803 -82.7422 322° Northwest 410 472 38,000  Level Indianapolis Center
Sun 06:18:57 PM 37.1689 -82.8294 322° Northwest 409 471 38,000  Level Indianapolis Center
Sun 06:19:59 PM 37.2581 -82.9164 322° Northwest 408 470 38,000  Level Indianapolis Center
Sun 06:21:02 PM 37.3464 -83.0036 322° Northwest 405 466 38,000  Level Indianapolis Center
Sun 06:22:04 PM 37.4356 -83.0914 322° Northwest 406 467 38,000  Level Indianapolis Center
Sun 06:23:06 PM 37.5392 -83.1925 322° Northwest 404 465 38,000 -484 Level Indianapolis Center
Sun 06:24:08 PM 37.6308 -83.2828 322° Northwest 412 474 37,000 -677 Descending Indianapolis Center
Sun 06:25:10 PM 37.7244 -83.3761 322° Northwest 426 490 36,600 -484 Descending Indianapolis Center
Sun 06:26:12 PM 37.8194 -83.4694 322° Northwest 431 496 36,000 -677 Descending Indianapolis Center
Sun 06:27:14 PM 37.9131 -83.5633 322° Northwest 430 495 35,200 -968 Descending Indianapolis Center
Sun 06:28:16 PM 38.0314 -83.6583 328° Northwest 431 496 34,000 -1,065 Descending Indianapolis Center
Sun 06:29:18 PM 38.1294 -83.7353 328° Northwest 416 479 33,000 -484 Descending Indianapolis Center
Sun 06:30:20 PM 38.2253 -83.8117 328° Northwest 408 470 33,000  Level Indianapolis Center
Sun 06:31:22 PM 38.3208 -83.8869 328° Northwest 404 465 33,000 -290 Level Indianapolis Center
Sun 06:32:24 PM 38.4192 -83.9656 328° Northwest 412 474 32,400 -484 Descending Indianapolis Center
Sun 06:33:26 PM 38.5331 -84.0575 328° Northwest 414 476 32,000 -194 Descending Indianapolis Center
Sun 06:34:28 PM 38.6303 -84.1347 328° Northwest 413 475 32,000  Level Indianapolis Center
Sun 06:35:30 PM 38.7222 -84.2097 328° Northwest 413 475 32,000  Level Indianapolis Center
Sun 06:36:32 PM 38.8186 -84.2881 328° Northwest 411 473 32,000  Level Indianapolis Center
Sun 06:37:34 PM 38.9150 -84.3633 329° Northwest 407 468 32,000  Level Indianapolis Center
Sun 06:38:36 PM 39.0108 -84.4433 327° Northwest 408 470 32,000  Level Indianapolis Center
Sun 06:39:38 PM 39.1275 -84.5367 328° Northwest 410 472 32,000 -435 Level Indianapolis Center
Sun 06:40:40 PM 39.2269 -84.6183 328° Northwest 418 481 31,100 -1,113 Descending Indianapolis Center
Sun 06:41:42 PM 39.3275 -84.7011 328° Northwest 423 487 29,700 -1,306 Descending Indianapolis Center
Sun 06:42:44 PM 39.4317 -84.7867 328° Northwest 433 498 28,400 -823 Descending Indianapolis Center
Sun 06:43:46 PM 39.5342 -84.8706 328° Northwest 436 502 28,000 -192 Descending Indianapolis Center
Sun 06:44:49 PM 39.6331 -84.9522 328° Northwest 432 497 28,000  Level Indianapolis Center
Sun 06:45:51 PM 39.7519 -85.0514 327° Northwest 427 491 28,000  Level Indianapolis Center
Sun 06:46:53 PM 39.8506 -85.1331 328° Northwest 424 488 28,000 -435 Level Indianapolis Center
Sun 06:47:55 PM 39.9478 -85.2139 327° Northwest 419 482 27,100 -968 Descending Indianapolis Center
Sun 06:48:57 PM 40.0444 -85.2964 327° Northwest 418 481 26,000 -532 Descending Indianapolis Center
Sun 06:49:59 PM 40.1419 -85.3789 327° Northwest 419 482 26,000  Level Indianapolis Center
Sun 06:51:01 PM 40.2369 -85.5131 313° West 421 484 26,000 -339 Level Indianapolis Center
Sun 06:52:03 PM 40.3164 -85.6267 313° West 425 489 25,300 -968 Descending Indianapolis Center
Sun 06:53:05 PM 40.3933 -85.7392 312° West 420 483 24,000 -629 Descending Indianapolis Center
Sun 06:54:07 PM 40.4692 -85.8500 312° West 413 475 24,000  Level Indianapolis Center
Sun 06:55:09 PM 40.5444 -85.9600 312° West 409 471 24,000  Level Indianapolis Center
Sun 06:56:11 PM 40.6347 -86.0939 312° West 408 470 24,000  Level Indianapolis Center
Sun 06:57:13 PM 40.7103 -86.2058 312° West 410 472 24,000 -242 Level Indianapolis Center
Sun 06:58:15 PM 40.7856 -86.3167 312° West 409 471 23,500 -1,210 Descending Indianapolis Center
Sun 06:59:17 PM 40.8600 -86.4281 311° West 407 468 21,500 -1,887 Descending Indianapolis Center
Sun 07:00:19 PM 40.9331 -86.5344 312° West 397 457 19,600 -1,935 Descending Indianapolis Center
Sun 07:01:21 PM 41.0183 -86.6644 311° West 393 452 17,500 -1,854 Descending Indianapolis Center
Sun 07:02:22 PM 41.0881 -86.7731 310° West 391 450 15,800 -1,610 Descending Indianapolis Center
Sun 07:03:24 PM 41.1561 -86.8769 311° West 383 441 14,200 -1,548 Descending Indianapolis Center
Sun 07:04:26 PM 41.2242 -86.9764 312° West 372 428 12,600 -1,548 Descending Indianapolis Center
Sun 07:05:28 PM 41.2908 -87.0797 311° West 369 425 11,000 -671 Descending Indianapolis Center
Sun 07:06:49 PM 41.3811 -87.2142 312° West 367 422 11,000  Level Chicago Center
Sun 07:07:51 PM 41.4700 -87.3186 319° Northwest 360 414 11,000 -339 Level Chicago Center
Sun 07:08:53 PM 41.5431 -87.4033 319° Northwest 353 406 10,300 -532 Descending Chicago Center
Sun 07:09:55 PM 41.6200 -87.4869 321° Northwest 358 412 9,900 -145 Descending Chicago Center
Sun 07:10:57 PM 41.6972 -87.5739 320° Northwest 364 419 10,000 -97 Climbing Chicago Center
Sun 07:11:59 PM 41.7689 -87.6553 320° Northwest 349 402 9,700 -968 Descending Chicago Center
Sun 07:13:01 PM 41.8061 -87.7567 296° West 270 311 8,000 -1,355 Descending Chicago Center
Sun 07:14:03 PM 41.8058 -87.8522 270° West 260 299 6,900 -629 Descending Chicago Center
Sun 07:15:05 PM 41.7969 -87.9242 261° West 217 250 6,700 -919 Descending Chicago Center
Sun 07:16:07 PM 41.8144 -87.9814 292° West 211 243 5,000 -1,728 Descending Chicago Center
Sun 07:17:10 PM 41.8742 -87.9922 352° North 202 232 3,100 -1,590 Descending Chicago Center
Sun 07:18:04 PM 41.9167 -87.9500 36° Northeast 170 196 1,900 -1,000 Descending Chicago TRACON
Sun 07:19:04 PM 41.9333 -87.9167 56° Northeast 136 157 1,200 -700 Descending Chicago TRACON

Login

Don't have an account? Register now (free) for customized features, flight alerts, and more!